Time;durP1;ratioP1;P1;durP2;ratioP2;P2;SDS_P1;SDS_P2;PMS_P1;PMS_P2;Temp;Humidity;BMP_temperature;BMP_pressure;BME280_temperature;BME280_humidity;BME280_pressure;Samples;Min_cycle;Max_cycle;Signal;HPM_P1;HPM_P2
2022/02/09 00:01:14;;;;;;;15.32;8.65;;;6.30;99.90;;;-146.41;100.00;57768.22;5024197;28;20181;-67
2022/02/09 00:03:46;;;;;;;13.63;8.35;;;6.40;99.90;;;-146.41;100.00;57768.22;5019861;28;20474;-67
2022/02/09 00:06:23;;;;;;;11.90;7.80;;;6.30;99.90;;;-146.41;100.00;57768.22;5018128;28;20045;-67
2022/02/09 00:08:50;;;;;;;10.63;7.22;;;6.40;99.90;;;-146.41;100.00;57768.22;5018731;28;20077;-67
2022/02/09 00:11:26;;;;;;;10.60;6.78;;;6.30;99.90;;;-146.41;100.00;57768.22;5022479;28;20200;-67
2022/02/09 00:13:59;;;;;;;11.23;7.35;;;6.30;99.90;;;-146.41;100.00;57768.22;5019093;28;20160;-67
2022/02/09 00:19:32;;;;;;;13.48;9.05;;;6.30;99.90;;;-146.41;100.00;57768.22;5025474;28;20049;-67
2022/02/09 00:37:35;;;;;;;13.45;8.05;;;6.40;99.90;;;-146.41;100.00;57768.22;5022066;28;20007;-67
2022/02/09 01:56:27;;;;;;;10.68;6.32;;;6.30;99.90;;;-146.41;100.00;57768.22;5024827;28;20289;-67
2022/02/09 01:58:55;;;;;;;12.80;6.78;;;6.20;99.90;;;-146.41;100.00;57768.22;5020911;28;20620;-67
2022/02/09 02:01:23;;;;;;;10.18;6.50;;;6.20;99.90;;;-146.41;100.00;57768.22;5018074;28;20052;-67
2022/02/09 02:03:50;;;;;;;10.63;6.75;;;6.20;99.90;;;-146.41;100.00;57768.22;5028012;28;20136;-67
2022/02/09 02:06:19;;;;;;;10.02;5.95;;;6.20;99.90;;;-146.41;100.00;57768.22;5019741;28;20410;-67
2022/02/09 02:08:48;;;;;;;9.30;5.93;;;6.20;99.90;;;-146.41;100.00;57768.22;5022071;28;20080;-67
2022/02/09 02:16:23;;;;;;;9.90;5.78;;;6.10;99.90;;;-146.41;100.00;57768.22;5026432;28;20123;-67
2022/02/09 02:19:02;;;;;;;9.18;5.88;;;6.10;99.90;;;-146.41;100.00;57768.22;5024971;28;20073;-67
2022/02/09 02:27:03;;;;;;;6.10;4.13;;;6.10;99.90;;;-146.41;100.00;57768.22;5024628;28;20143;-67
2022/02/09 02:41:05;;;;;;;11.70;5.97;;;6.20;99.90;;;-146.41;100.00;57768.22;5020350;28;20140;-67
2022/02/09 02:57:10;;;;;;;12.10;6.05;;;6.20;99.90;;;-146.41;100.00;57768.22;5023935;28;20378;-67
2022/02/09 03:08:38;;;;;;;8.80;5.47;;;6.20;99.90;;;-146.41;100.00;57768.22;5031219;28;20144;-67
2022/02/09 03:13:19;;;;;;;13.00;7.47;;;6.10;99.90;;;-146.41;100.00;57768.22;5016527;28;20096;-67
2022/02/09 03:15:54;;;;;;;11.70;6.93;;;6.10;99.90;;;-146.41;100.00;57768.22;5026569;28;20052;-67
2022/02/09 03:18:45;;;;;;;11.52;6.45;;;6.10;99.90;;;-146.41;100.00;57768.22;5019810;28;20120;-67
2022/02/09 03:24:18;;;;;;;15.02;6.95;;;6.10;99.90;;;-146.41;100.00;57768.22;5018942;28;20491;-67
2022/02/09 03:43:05;;;;;;;13.18;7.95;;;6.10;99.90;;;-146.41;100.00;57768.22;5019452;28;20120;-67
2022/02/09 03:58:47;;;;;;;15.02;7.85;;;6.10;99.90;;;-146.41;100.00;57768.22;5023977;28;20072;-67
2022/02/09 04:01:15;;;;;;;15.20;8.55;;;6.10;99.90;;;-146.41;100.00;57768.22;5018826;28;20092;-67
2022/02/09 04:03:43;;;;;;;11.73;7.53;;;6.10;99.90;;;-146.41;100.00;57768.22;5016452;28;20052;-67
2022/02/09 04:06:11;;;;;;;13.40;7.30;;;6.10;99.90;;;-146.41;100.00;57768.22;5023475;28;20057;-67
2022/02/09 04:08:46;;;;;;;19.10;9.15;;;6.10;99.90;;;-146.41;100.00;57768.22;5019910;28;20092;-67
2022/02/09 04:11:24;;;;;;;13.82;7.95;;;6.10;99.90;;;-146.41;100.00;57768.22;5023051;28;20053;-67
2022/02/09 04:14:01;;;;;;;14.40;8.00;;;6.10;99.90;;;-146.41;100.00;57768.22;5018418;28;20133;-67
2022/02/09 04:44:10;;;;;;;15.05;6.75;;;6.10;99.90;;;-146.41;100.00;57768.22;5015057;28;20093;-67
2022/02/09 04:54:28;;;;;;;16.85;7.97;;;6.10;99.90;;;-146.41;100.00;57768.22;5017728;28;20128;-67
2022/02/09 05:03:15;;;;;;;18.27;8.05;;;6.00;99.90;;;-146.41;100.00;57768.22;5019413;28;20128;-67
2022/02/09 05:23:43;;;;;;;16.10;7.43;;;6.00;99.90;;;-146.41;100.00;57768.22;5023226;28;20124;-67
2022/02/09 05:28:43;;;;;;;;;;;6.00;99.90;;;-146.41;100.00;57768.22;5020150;28;20140;-67
2022/02/09 05:31:10;;;;;;;17.65;6.80;;;6.00;99.90;;;-146.41;100.00;57768.22;5013320;28;20008;-67
2022/02/09 05:33:39;;;;;;;17.58;7.88;;;6.00;99.90;;;-146.41;100.00;57768.22;5020329;28;20141;-67
2022/02/09 05:36:06;;;;;;;21.35;7.20;;;6.00;99.90;;;-146.41;100.00;57768.22;5029591;28;20494;-67
2022/02/09 05:38:33;;;;;;;18.63;6.72;;;6.00;99.90;;;-146.41;100.00;57768.22;5021785;28;20042;-67
2022/02/09 05:41:00;;;;;;;21.23;8.07;;;6.00;99.90;;;-146.41;100.00;57768.22;5024085;28;20073;-67
2022/02/09 05:43:28;;;;;;;19.10;7.15;;;6.00;99.90;;;-146.41;100.00;57768.22;5014285;28;20132;-67
2022/02/09 05:51:24;;;;;;;17.65;6.80;;;6.00;99.90;;;-146.41;100.00;57768.22;5026462;28;20132;-67
2022/02/09 05:56:36;;;;;;;13.40;6.85;;;6.10;99.90;;;-146.41;100.00;57768.22;5025433;28;20080;-67
2022/02/09 06:01:44;;;;;;;18.08;6.43;;;6.10;99.90;;;-146.41;100.00;57768.22;5024401;28;20045;-67
2022/02/09 06:04:11;;;;;;;16.05;6.78;;;6.10;99.90;;;-146.41;100.00;57768.22;5027545;28;20500;-67
2022/02/09 06:06:39;;;;;;;18.67;7.50;;;6.10;99.90;;;-146.41;100.00;57768.22;5026813;28;20463;-67
2022/02/09 06:09:08;;;;;;;25.98;7.43;;;6.00;99.90;;;-146.41;100.00;57768.22;5024656;28;20065;-67
2022/02/09 06:11:43;;;;;;;17.83;7.47;;;6.10;99.90;;;-146.41;100.00;57768.22;5023173;28;20142;-67
2022/02/09 06:14:23;;;;;;;20.85;7.25;;;6.10;99.90;;;-146.41;100.00;57768.22;5024037;28;20116;-67
2022/02/09 06:19:50;;;;;;;17.23;7.35;;;6.10;99.90;;;-146.41;100.00;57768.22;5023216;28;20564;-66
2022/02/09 06:22:17;;;;;;;15.85;6.85;;;6.10;99.90;;;-146.41;100.00;57768.22;5024766;28;20165;-67
2022/02/09 06:24:44;;;;;;;16.35;6.25;;;6.10;99.90;;;-146.41;100.00;57768.22;5027310;28;20053;-67
2022/02/09 06:27:13;;;;;;;15.85;6.65;;;6.10;99.90;;;-146.41;100.00;57768.22;5026318;28;20054;-67
2022/02/09 06:29:46;;;;;;;19.35;7.25;;;6.10;99.90;;;-146.41;100.00;57768.22;5026050;28;20515;-67
2022/02/09 06:32:14;;;;;;;;;;;6.10;99.90;;;-146.41;100.00;57768.22;5022366;28;20495;-67
2022/02/09 06:34:44;;;;;;;17.35;6.38;;;6.10;99.90;;;-146.41;100.00;57768.22;5022388;28;20011;-67
2022/02/09 06:37:22;;;;;;;17.58;7.13;;;6.10;99.90;;;-146.41;100.00;57768.22;5021824;28;20074;-66
2022/02/09 06:39:56;;;;;;;16.08;6.20;;;6.10;99.90;;;-146.41;100.00;57768.22;5025610;28;20069;-67
2022/02/09 06:42:25;;;;;;;19.90;7.65;;;6.10;99.90;;;-146.41;100.00;57768.22;5024621;28;20069;-67
2022/02/09 06:44:57;;;;;;;14.32;7.28;;;6.10;99.90;;;-146.41;100.00;57768.22;5018528;28;20478;-67
2022/02/09 06:47:27;;;;;;;17.27;7.68;;;6.10;99.90;;;-146.41;100.00;57768.22;5024124;28;20136;-66
2022/02/09 06:50:01;;;;;;;17.95;7.63;;;6.10;99.90;;;-146.41;100.00;57768.22;5021160;28;20103;-67
2022/02/09 06:52:28;;;;;;;21.92;7.57;;;6.10;99.90;;;-146.41;100.00;57768.22;5018291;28;20053;-66
2022/02/09 06:57:58;;;;;;;17.40;7.05;;;6.10;99.90;;;-146.41;100.00;57768.22;5020992;28;20120;-67
2022/02/09 07:00:23;;;;;;;24.88;7.18;;;6.10;99.90;;;-146.41;100.00;57768.22;5018905;28;20177;-66
2022/02/09 07:02:51;;;;;;;20.33;7.30;;;6.10;99.90;;;-146.41;100.00;57768.22;5020021;28;20056;-66
2022/02/09 07:05:19;;;;;;;16.95;7.57;;;6.10;99.90;;;-146.41;100.00;57768.22;5026718;28;20518;-66
2022/02/09 07:07:46;;;;;;;21.00;9.23;;;6.10;99.90;;;-146.41;100.00;57768.22;5018726;28;20462;-66
2022/02/09 07:10:14;;;;;;;15.82;7.20;;;6.30;99.90;;;-146.41;100.00;57768.22;5022584;28;20081;-66
2022/02/09 07:12:41;;;;;;;21.42;7.47;;;6.30;99.90;;;-146.41;100.00;57768.22;5022077;28;20049;-66
2022/02/09 07:15:14;;;;;;;16.70;6.72;;;6.20;99.90;;;-146.41;100.00;57768.22;5017614;28;20726;-67
2022/02/09 07:17:43;;;;;;;19.35;7.22;;;6.20;99.90;;;-146.41;100.00;57768.22;5019081;28;20140;-67
2022/02/09 07:20:19;;;;;;;22.20;8.23;;;6.20;99.90;;;-146.41;100.00;57768.22;5020475;28;20709;-67
2022/02/09 07:22:49;;;;;;;23.05;9.38;;;6.20;99.90;;;-146.41;100.00;57768.22;5021067;28;20124;-65
2022/02/09 07:25:31;;;;;;;17.55;6.97;;;6.30;99.90;;;-146.41;100.00;57768.22;5022358;28;20064;-65
2022/02/09 07:28:05;;;;;;;19.75;8.23;;;6.30;99.90;;;-146.41;100.00;57768.22;5029224;28;20128;-65
2022/02/09 07:30:32;;;;;;;18.77;8.63;;;6.30;99.90;;;-146.41;100.00;57768.22;5021649;28;20569;-66
2022/02/09 07:33:03;;;;;;;20.00;7.53;;;6.30;99.90;;;-146.41;100.00;57768.22;5021594;28;20535;-65
2022/02/09 07:35:31;;;;;;;16.02;7.30;;;6.30;99.90;;;-146.41;100.00;57768.22;5023542;28;20128;-65
2022/02/09 07:37:59;;;;;;;20.13;7.88;;;6.30;99.90;;;-146.41;100.00;57768.22;5022862;28;20045;-65
2022/02/09 07:40:26;;;;;;;19.52;8.45;;;6.40;99.90;;;-146.41;100.00;57768.22;5021808;28;20169;-66
2022/02/09 07:42:57;;;;;;;20.75;8.77;;;6.40;99.90;;;-146.41;100.00;57768.22;5024486;28;20140;-65
2022/02/09 07:53:47;;;;;;;14.23;7.38;;;6.50;99.90;;;-146.41;100.00;57768.22;5018906;28;20148;-65
2022/02/09 07:56:16;;;;;;;17.60;7.18;;;6.50;99.90;;;-146.41;100.00;57768.22;5023267;28;20447;-65
2022/02/09 07:58:44;;;;;;;16.42;6.25;;;6.50;99.90;;;-146.41;100.00;57768.22;5008034;28;20213;-65
2022/02/09 08:01:11;;;;;;;19.63;6.85;;;6.60;99.90;;;-146.41;100.00;57768.22;5020498;28;20065;-65
2022/02/09 08:03:39;;;;;;;15.88;6.90;;;6.60;99.90;;;-146.41;100.00;57768.22;5022328;28;20053;-65
2022/02/09 08:06:07;;;;;;;17.83;6.68;;;6.70;99.90;;;-146.41;100.00;57768.22;5026400;28;20073;-65
2022/02/09 08:08:36;;;;;;;15.30;6.40;;;6.70;99.90;;;-146.41;100.00;57768.22;5014532;28;20115;-65
2022/02/09 08:11:22;;;;;;;17.17;7.25;;;6.70;99.90;;;-146.41;100.00;57768.22;5021057;28;20494;-68
2022/02/09 08:30:02;;;;;;;19.20;8.63;;;7.10;99.90;;;-146.41;100.00;57768.22;5019455;28;20136;-66
2022/02/09 08:34:59;;;;;;;15.50;6.65;;;7.00;99.90;;;-146.41;100.00;57768.22;5023548;28;20080;-66
2022/02/09 08:37:26;;;;;;;42.03;21.10;;;6.90;99.90;;;-146.41;100.00;57768.22;5019461;28;20057;-66
2022/02/09 08:39:55;;;;;;;19.73;8.65;;;6.90;99.90;;;-146.41;100.00;57768.22;5019308;28;20045;-66
2022/02/09 08:42:24;;;;;;;16.27;6.45;;;6.90;99.90;;;-146.41;100.00;57768.22;5020711;28;20482;-66
2022/02/09 08:44:53;;;;;;;19.58;6.70;;;6.90;99.90;;;-146.41;100.00;57768.22;5022236;28;20329;-66
2022/02/09 08:47:40;;;;;;;16.80;8.93;;;7.00;99.90;;;-146.41;100.00;57768.22;5020661;28;20539;-66
2022/02/09 08:50:08;;;;;;;18.45;9.23;;;7.00;99.90;;;-146.41;100.00;57768.22;5020598;28;20132;-66
2022/02/09 08:52:35;;;;;;;19.85;10.70;;;7.10;99.90;;;-146.41;100.00;57768.22;5022650;28;20136;-66
2022/02/09 08:55:03;;;;;;;14.60;7.55;;;7.10;99.90;;;-146.41;100.00;57768.22;5019198;28;20160;-66
2022/02/09 08:57:31;;;;;;;21.15;10.93;;;7.20;99.90;;;-146.41;100.00;57768.22;5019283;28;20128;-66
2022/02/09 09:00:00;;;;;;;31.52;16.95;;;7.30;99.90;;;-146.41;100.00;57768.22;5021588;28;20115;-66
2022/02/09 09:02:34;;;;;;;20.38;12.38;;;7.30;99.90;;;-146.41;100.00;57768.22;5020033;28;20238;-66
2022/02/09 09:05:16;;;;;;;36.65;15.63;;;7.40;99.90;;;-146.41;100.00;57768.22;5017677;28;20585;-66
2022/02/09 09:07:49;;;;;;;22.27;11.30;;;7.50;99.90;;;-146.41;100.00;57768.22;5015538;28;20145;-66
2022/02/09 09:10:25;;;;;;;21.85;11.57;;;7.50;99.90;;;-146.41;100.00;57768.22;5014741;28;20136;-66
2022/02/09 09:19:00;;;;;;;13.70;6.50;;;7.70;99.90;;;-146.41;100.00;57768.22;5023464;28;20120;-66
2022/02/09 10:34:28;;;;;;;8.27;2.40;;;9.00;99.90;;;-146.41;100.00;57768.22;5027298;28;20131;-68
2022/02/09 10:37:04;;;;;;;9.43;2.50;;;9.10;99.90;;;-146.41;100.00;57768.22;5027603;28;20418;-67
2022/02/09 10:42:31;;;;;;;8.55;2.00;;;9.30;99.90;;;-146.41;100.00;57768.22;5024315;28;20037;-66
2022/02/09 10:45:28;;;;;;;9.98;2.60;;;9.30;99.90;;;-146.41;100.00;57768.22;5018140;28;20458;-67
2022/02/09 10:47:45;;;;;;;13.57;2.95;;;9.30;99.90;;;-146.41;100.00;57768.22;5022705;28;20140;-67
2022/02/09 10:50:27;;;;;;;8.38;2.42;;;9.30;99.90;;;-146.41;100.00;57768.22;5019064;28;20546;-66
2022/02/09 10:52:59;;;;;;;13.07;2.47;;;9.20;99.90;;;-146.41;100.00;57768.22;5022536;28;20099;-66
2022/02/09 10:55:38;;;;;;;9.60;2.38;;;9.30;99.90;;;-146.41;100.00;57768.22;5022663;28;20336;-66
2022/02/09 10:58:20;;;;;;;8.82;2.30;;;9.40;99.90;;;-146.41;100.00;57768.22;5026296;28;20144;-66
2022/02/09 11:00:48;;;;;;;10.60;2.25;;;9.50;99.90;;;-146.41;100.00;57768.22;5021614;28;20085;-67
2022/02/09 11:03:27;;;;;;;8.23;2.35;;;9.50;99.90;;;-146.41;100.00;57768.22;5025645;28;20061;-68
2022/02/09 11:05:55;;;;;;;8.75;1.85;;;9.40;99.90;;;-146.41;100.00;57768.22;5021739;28;20081;-67
2022/02/09 11:08:22;;;;;;;5.22;1.60;;;9.50;99.90;;;-146.41;100.00;57768.22;5025983;28;20056;-68
2022/02/09 11:10:50;;;;;;;10.07;2.15;;;9.50;99.90;;;-146.41;100.00;57768.22;5023088;28;20141;-67
2022/02/09 11:13:18;;;;;;;11.38;2.05;;;9.60;99.90;;;-146.41;100.00;57768.22;5022820;28;20049;-68
2022/02/09 11:15:47;;;;;;;7.20;1.75;;;9.60;99.90;;;-146.41;100.00;57768.22;5026205;28;20502;-67
2022/02/09 11:18:24;;;;;;;7.70;1.58;;;9.70;99.90;;;-146.41;100.00;57768.22;5022401;28;20565;-67
2022/02/09 11:21:05;;;;;;;10.77;1.70;;;9.80;99.90;;;-146.41;100.00;57768.22;5022755;28;20045;-67
2022/02/09 11:23:53;;;;;;;8.93;1.50;;;9.80;99.90;;;-146.41;100.00;57768.22;5032566;28;20096;-67
2022/02/09 11:26:49;;;;;;;10.73;1.60;;;9.80;99.90;;;-146.41;100.00;57768.22;5024061;28;20470;-68
2022/02/09 11:29:43;;;;;;;8.45;1.38;;;9.90;99.90;;;-146.41;100.00;57768.22;5020093;28;20469;-67
2022/02/09 11:34:55;;;;;;;8.38;1.67;;;9.80;99.90;;;-146.41;100.00;57768.22;5021027;28;20057;-67
2022/02/09 11:43:26;;;;;;;10.65;1.95;;;10.00;99.90;;;-146.41;100.00;57768.22;5023463;28;20499;-67
2022/02/09 12:12:13;;;;;;;11.35;2.50;;;10.50;99.90;;;-146.41;100.00;57768.22;5022522;28;20132;-67
2022/02/09 12:15:44;;;;;;;8.20;2.75;;;10.60;99.90;;;-146.41;100.00;57768.22;5019845;28;20095;-67
2022/02/09 12:17:49;;;;;;;8.43;2.10;;;10.50;99.90;;;-146.41;100.00;57768.22;5015196;28;20478;-67
2022/02/09 12:20:27;;;;;;;11.20;1.77;;;10.60;99.90;;;-146.41;100.00;57768.22;5020556;28;20386;-66
2022/02/09 12:23:25;;;;;;;6.97;1.92;;;10.50;99.90;;;-146.41;100.00;57768.22;5020954;28;20156;-66
2022/02/09 12:25:53;;;;;;;9.00;2.30;;;10.60;99.90;;;-146.41;100.00;57768.22;5020987;28;20058;-66
2022/02/09 12:28:36;;;;;;;8.23;1.08;;;10.70;99.90;;;-146.41;100.00;57768.22;5021123;28;20053;-66
2022/02/09 12:31:11;;;;;;;6.65;1.13;;;10.70;99.90;;;-146.41;100.00;57768.22;5019990;28;20073;-67
2022/02/09 12:33:48;;;;;;;11.00;1.70;;;10.70;99.90;;;-146.41;100.00;57768.22;5019696;28;20213;-67
2022/02/09 12:36:29;;;;;;;8.07;1.50;;;10.80;99.90;;;-146.41;100.00;57768.22;5021053;28;20152;-67
2022/02/09 12:38:59;;;;;;;5.70;1.40;;;10.90;99.90;;;-146.41;100.00;57768.22;5023292;28;20124;-67
2022/02/09 12:41:26;;;;;;;7.03;1.50;;;11.00;99.90;;;-146.41;100.00;57768.22;5023125;28;20135;-67
2022/02/09 12:43:59;;;;;;;4.97;1.10;;;11.10;99.90;;;-146.41;100.00;57768.22;5002576;28;20426;-67
2022/02/09 12:46:34;;;;;;;4.18;1.45;;;11.10;99.90;;;-146.41;100.00;57768.22;5016583;28;20057;-66
2022/02/09 12:49:13;;;;;;;8.30;1.60;;;11.10;99.90;;;-146.41;100.00;57768.22;5024223;28;20046;-67
2022/02/09 12:51:44;;;;;;;7.28;1.83;;;11.10;99.90;;;-146.41;100.00;57768.22;5029690;28;20131;-66
2022/02/09 12:54:13;;;;;;;5.57;1.42;;;11.20;99.90;;;-146.41;100.00;57768.22;5021234;28;20077;-66
2022/02/09 12:56:44;;;;;;;7.97;1.48;;;11.20;99.90;;;-146.41;100.00;57768.22;5023130;28;20153;-67
2022/02/09 12:59:17;;;;;;;5.68;1.30;;;11.20;99.90;;;-146.41;100.00;57768.22;5024035;28;20236;-68
2022/02/09 13:01:49;;;;;;;5.82;1.20;;;11.30;99.90;;;-146.41;100.00;57768.22;5020358;28;20851;-66
2022/02/09 13:04:39;;;;;;;9.32;1.35;;;11.40;99.90;;;-146.41;100.00;57768.22;5023733;28;20084;-66
2022/02/09 13:07:15;;;;;;;8.95;1.25;;;11.40;99.90;;;-146.41;100.00;57768.22;5021570;28;20535;-67
2022/02/09 13:09:49;;;;;;;4.82;1.50;;;11.50;99.90;;;-146.41;100.00;57768.22;5007892;28;20128;-66
2022/02/09 13:12:28;;;;;;;5.18;1.30;;;11.70;99.90;;;-146.41;100.00;57768.22;5022817;28;20447;-67
2022/02/09 13:15:05;;;;;;;6.47;1.38;;;11.70;99.90;;;-146.41;100.00;57768.22;5018363;28;20107;-67
2022/02/09 13:18:29;;;;;;;5.20;0.93;;;11.80;99.90;;;-146.41;100.00;57768.22;5017692;28;20109;-67
2022/02/09 13:21:15;;;;;;;5.35;1.10;;;11.90;99.90;;;-146.41;100.00;57768.22;5014307;28;20311;-67
2022/02/09 14:49:51;;;;;;;8.88;2.30;;;20.90;83.20;;;-146.41;100.00;57768.22;5020933;28;20056;-67
2022/02/09 14:51:49;;;;;;;3.10;1.00;;;20.30;83.80;;;-146.41;100.00;57768.22;5020487;28;20069;-67
2022/02/09 14:59:48;;;;;;;3.83;1.00;;;20.40;84.60;;;-146.41;100.00;57768.22;5015955;28;20054;-67
2022/02/09 15:02:35;;;;;;;4.63;1.27;;;20.60;84.40;;;-146.41;100.00;57768.22;5016517;28;20132;-67
2022/02/09 15:05:27;;;;;;;4.50;1.30;;;20.50;84.10;;;-146.41;100.00;57768.22;5020174;28;20126;-67
2022/02/09 15:08:18;;;;;;;3.42;1.15;;;19.90;85.00;;;-146.41;100.00;57768.22;5021028;28;20596;-67
2022/02/09 15:10:48;;;;;;;6.72;1.13;;;20.10;85.20;;;-146.41;100.00;57768.22;5024241;28;20042;-66
2022/02/09 15:23:29;;;;;;;4.10;1.40;;;19.30;84.90;;;-146.41;100.00;57768.22;5019352;28;20049;-66
2022/02/09 15:26:00;;;;;;;4.63;1.50;;;18.90;85.40;;;-146.41;100.00;57768.22;5023008;28;20140;-67
2022/02/09 15:28:27;;;;;;;7.35;1.80;;;19.20;86.80;;;-146.41;100.00;57768.22;5025944;28;20164;-66
2022/02/09 15:31:40;;;;;;;5.47;1.95;;;19.10;87.20;;;-146.41;100.00;57768.22;5018585;28;20147;-67
2022/02/09 15:33:46;;;;;;;6.57;1.63;;;19.10;86.20;;;-146.41;100.00;57768.22;5012789;28;20073;-66
2022/02/09 15:36:44;;;;;;;3.88;1.38;;;18.80;86.40;;;-146.41;100.00;57768.22;5022585;28;20139;-66
2022/02/09 15:39:13;;;;;;;3.85;1.35;;;18.40;87.10;;;-146.41;100.00;57768.22;5018347;28;20134;-66
2022/02/09 15:41:59;;;;;;;3.58;1.00;;;18.20;87.90;;;-146.41;100.00;57768.22;5018493;28;20057;-66
2022/02/09 15:58:34;;;;;;;2.67;1.00;;;18.60;89.60;;;-146.41;100.00;57768.22;5019141;28;20046;-67
2022/02/09 16:26:08;;;;;;;5.65;2.08;;;11.40;99.90;;;-146.41;100.00;57768.22;5021291;28;20561;-66
2022/02/09 16:33:14;;;;;;;7.20;1.88;;;10.90;99.90;;;-146.41;100.00;57768.22;5011986;28;20049;-66
2022/02/09 16:34:39;;;;;;;6.75;1.67;;;10.60;99.90;;;-146.41;100.00;57768.22;5022403;28;20555;-67
2022/02/09 16:45:34;;;;;;;6.15;1.63;;;10.00;99.90;;;-146.41;100.00;57768.22;5020269;28;20053;-67
2022/02/09 16:48:04;;;;;;;9.88;1.88;;;;;;;-146.41;100.00;57768.22;5022046;28;20160;-67
2022/02/09 16:50:38;;;;;;;6.32;1.40;;;;;;;-146.41;100.00;57768.22;5017892;28;20407;-67
2022/02/09 16:53:19;;;;;;;5.15;1.48;;;;;;;-146.41;100.00;57768.22;5014102;28;20049;-66
2022/02/09 17:20:39;;;;;;;40.53;27.25;;;;;;;-146.41;100.00;57768.22;5018559;28;20049;-67
2022/02/09 17:23:07;;;;;;;27.35;19.10;;;;;;;-146.41;100.00;57768.22;5021880;28;20125;-67
2022/02/09 17:25:34;;;;;;;48.22;27.17;;;;;;;-146.41;100.00;57768.22;5020066;28;20389;-67
2022/02/09 17:28:02;;;;;;;46.45;28.42;;;;;;;-146.41;100.00;57768.22;5020606;28;20054;-67
2022/02/09 17:35:35;;;;;;;67.68;38.50;;;;;;;-146.41;100.00;57768.22;5020230;28;20080;-66
2022/02/09 17:38:50;;;;;;;46.80;28.05;;;;;;;-146.41;100.00;57768.22;5019419;28;20104;-67
2022/02/09 18:00:14;;;;;;;24.35;13.95;;;;;;;-146.41;100.00;57768.22;5023356;28;20137;-67
2022/02/09 18:02:45;;;;;;;20.35;10.63;;;;;;;-146.41;100.00;57768.22;5009262;28;20517;-66
2022/02/09 18:05:23;;;;;;;20.60;10.45;;;;;;;-146.41;100.00;57768.22;5019989;28;20148;-66
2022/02/09 18:07:59;;;;;;;15.82;8.10;;;;;;;-146.41;100.00;57768.22;5023243;28;20065;-66
2022/02/09 18:15:47;;;;;;;23.13;11.77;;;;;;;-146.41;100.00;57768.22;5025459;28;20480;-66
2022/02/09 18:44:58;;;;;;;19.75;10.05;;;;;;;-146.41;100.00;57768.22;5021407;28;20053;-66
2022/02/09 19:03:55;;;;;;;19.50;10.65;;;5.90;99.90;;;-146.41;100.00;57768.22;5024071;28;20102;-69
2022/02/09 19:06:37;;;;;;;22.80;11.82;;;5.70;99.90;;;-146.41;100.00;57768.22;5026648;28;20080;-68
2022/02/09 19:48:37;;;;;;;32.97;15.30;;;5.10;99.90;;;-146.41;100.00;57768.22;5024857;28;20080;-67
2022/02/09 19:53:46;;;;;;;29.95;14.27;;;5.00;99.90;;;-146.41;100.00;57768.22;5018654;28;20108;-66
2022/02/09 19:56:18;;;;;;;25.73;13.60;;;5.00;99.90;;;-146.41;100.00;57768.22;5019792;28;20568;-66
2022/02/09 19:59:01;;;;;;;30.17;14.55;;;4.80;99.90;;;-146.41;100.00;57768.22;5020488;28;20125;-67
2022/02/09 20:01:35;;;;;;;26.13;13.55;;;4.70;99.90;;;-146.41;100.00;57768.22;5018173;28;20092;-66
2022/02/09 20:04:07;;;;;;;27.83;13.32;;;4.70;99.90;;;-146.41;100.00;57768.22;5024216;28;20049;-67
2022/02/09 20:06:35;;;;;;;29.20;13.07;;;4.60;99.90;;;-146.41;100.00;57768.22;5014541;28;20160;-66
2022/02/09 20:09:03;;;;;;;36.72;17.35;;;4.60;99.90;;;-146.41;100.00;57768.22;5023534;28;20556;-67
2022/02/09 20:11:32;;;;;;;25.98;13.70;;;4.60;99.90;;;-146.41;100.00;57768.22;5024083;28;20065;-67
2022/02/09 20:14:00;;;;;;;25.83;12.55;;;4.50;99.90;;;-146.41;100.00;57768.22;5021654;28;20045;-66
2022/02/09 20:16:28;;;;;;;20.45;11.38;;;4.50;99.90;;;-146.41;100.00;57768.22;5022824;28;20128;-67
2022/02/09 20:18:56;;;;;;;26.40;11.50;;;4.40;99.90;;;-146.41;100.00;57768.22;5020603;28;20141;-67
2022/02/09 20:21:29;;;;;;;29.65;11.85;;;4.30;99.90;;;-146.41;100.00;57768.22;5021348;28;20148;-67
2022/02/09 20:23:57;;;;;;;26.20;12.88;;;4.30;99.90;;;-146.41;100.00;57768.22;5022358;28;20128;-66
2022/02/09 20:26:26;;;;;;;24.35;12.65;;;4.20;99.90;;;-146.41;100.00;57768.22;5021577;28;20059;-67
2022/02/09 20:29:02;;;;;;;29.15;14.30;;;4.20;99.90;;;-146.41;100.00;57768.22;5024109;28;20083;-67
2022/02/09 20:31:33;;;;;;;27.30;13.15;;;4.10;99.90;;;-146.41;100.00;57768.22;5019242;28;20051;-67
2022/02/09 20:34:08;;;;;;;19.75;11.13;;;4.10;99.90;;;-146.41;100.00;57768.22;5017788;28;20122;-67
2022/02/09 20:36:37;;;;;;;19.98;10.95;;;4.10;99.90;;;-146.41;100.00;57768.22;5024419;28;20133;-66
2022/02/09 20:39:06;;;;;;;20.42;10.45;;;4.00;99.90;;;-146.41;100.00;57768.22;5021505;28;20203;-67
2022/02/09 20:41:35;;;;;;;24.27;9.70;;;4.00;99.90;;;-146.41;100.00;57768.22;5024769;28;20080;-67
2022/02/09 20:46:32;;;;;;;18.05;9.82;;;4.10;99.90;;;-146.41;100.00;57768.22;5024975;28;20393;-66
2022/02/09 20:49:02;;;;;;;17.05;10.43;;;4.00;99.90;;;-146.41;100.00;57768.22;5022507;28;20061;-67
2022/02/09 20:51:30;;;;;;;21.83;12.57;;;4.00;99.90;;;-146.41;100.00;57768.22;5023662;28;20385;-67
2022/02/09 20:53:58;;;;;;;22.20;10.82;;;4.00;99.90;;;-146.41;100.00;57768.22;5022025;28;20483;-67
2022/02/09 20:56:25;;;;;;;20.48;9.93;;;4.00;99.90;;;-146.41;100.00;57768.22;5019387;28;20081;-68
2022/02/09 20:58:59;;;;;;;23.08;12.40;;;4.00;99.90;;;-146.41;100.00;57768.22;5027903;28;20053;-67
2022/02/09 21:01:34;;;;;;;24.85;12.80;;;4.00;99.90;;;-146.41;100.00;57768.22;5025790;28;20160;-67
2022/02/09 21:04:05;;;;;;;26.02;12.07;;;4.00;99.90;;;-146.41;100.00;57768.22;5024143;28;20132;-67
2022/02/09 21:06:56;;;;;;;26.30;12.88;;;4.00;99.90;;;-146.41;100.00;57768.22;5020587;28;20220;-68
2022/02/09 21:09:53;;;;;;;29.58;11.75;;;4.00;99.90;;;-146.41;100.00;57768.22;5021489;28;20129;-66
2022/02/09 21:22:47;;;;;;;20.23;10.80;;;4.30;99.90;;;-146.41;100.00;57768.22;5022354;28;20092;-66
2022/02/09 21:52:35;;;;;;;13.20;6.30;;;4.90;99.90;;;-146.41;100.00;57768.22;5020469;28;20129;-67
2022/02/09 21:55:18;;;;;;;14.07;5.40;;;5.00;99.90;;;-146.41;100.00;57768.22;5026139;28;20080;-67
2022/02/09 22:27:40;;;;;;;11.50;4.15;;;5.80;99.90;;;-146.41;100.00;57768.22;5022903;28;20472;-67
2022/02/09 22:55:06;;;;;;;10.40;4.85;;;5.80;99.90;;;-146.41;100.00;57768.22;5023907;28;20505;-68
2022/02/09 23:00:36;;;;;;;12.65;4.60;;;5.80;99.90;;;-146.41;100.00;57768.22;5023417;28;20700;-68
2022/02/09 23:03:03;;;;;;;13.20;4.78;;;5.70;99.90;;;-146.41;100.00;57768.22;5019788;28;20486;-68
2022/02/09 23:05:45;;;;;;;12.25;5.50;;;5.60;99.90;;;-146.41;100.00;57768.22;5019696;28;20129;-68
2022/02/09 23:13:57;;;;;;;12.77;5.10;;;5.50;99.90;;;-146.41;100.00;57768.22;5022525;28;20140;-68
2022/02/09 23:25:51;;;;;;;15.98;5.82;;;5.40;99.90;;;-146.41;100.00;57768.22;5022818;28;20203;-68
